createdAt,value
2022-12-13T00:03:56.008Z,13.00
2022-12-13T00:08:04.049Z,15.20
2022-12-13T00:12:11.697Z,14.30
2022-12-13T00:16:22.839Z,15.00
2022-12-13T00:20:30.972Z,12.50
2022-12-13T00:24:44.480Z,10.60
2022-12-13T00:28:55.435Z,10.40
2022-12-13T00:33:03.349Z,9.10
2022-12-13T00:37:11.256Z,16.90
2022-12-13T00:41:22.013Z,12.70
2022-12-13T00:45:29.110Z,14.00
2022-12-13T00:49:36.888Z,11.40
2022-12-13T00:53:45.193Z,11.30
2022-12-13T00:57:53.024Z,9.10
2022-12-13T01:02:00.780Z,11.80
2022-12-13T01:06:15.626Z,10.70
2022-12-13T01:10:24.485Z,15.30
2022-12-13T01:14:32.679Z,17.20
2022-12-13T01:18:41.120Z,13.70
2022-12-13T01:22:49.065Z,11.40
2022-12-13T01:26:57.040Z,9.00
2022-12-13T01:31:08.290Z,11.30
2022-12-13T01:35:16.220Z,11.00
2022-12-13T01:39:26.315Z,9.70
2022-12-13T01:44:01.469Z,9.50
2022-12-13T01:48:11.137Z,17.40
2022-12-13T01:52:20.674Z,18.90
2022-12-13T01:56:31.391Z,13.70
2022-12-13T02:00:40.896Z,11.50
2022-12-13T02:04:57.723Z,10.90
2022-12-13T02:09:06.846Z,9.60
2022-12-13T02:13:15.776Z,9.50
2022-12-13T02:17:29.168Z,12.30
2022-12-13T02:21:40.744Z,15.10
2022-12-13T02:26:08.727Z,15.50
2022-12-13T02:30:27.129Z,12.10
2022-12-13T02:34:40.055Z,8.50
2022-12-13T02:38:54.139Z,9.40
2022-12-13T02:43:06.542Z,10.00
2022-12-13T02:47:22.093Z,10.40
2022-12-13T02:51:31.978Z,12.20
2022-12-13T02:55:41.153Z,17.50
2022-12-13T02:59:48.725Z,14.70
2022-12-13T03:04:08.398Z,12.60
2022-12-13T03:08:24.222Z,10.70
2022-12-13T03:12:54.008Z,12.20
2022-12-13T03:17:03.853Z,9.40
2022-12-13T03:21:13.021Z,9.70
2022-12-13T03:25:32.266Z,9.90
2022-12-13T03:29:41.098Z,10.00
2022-12-13T03:33:48.842Z,17.00
2022-12-13T03:37:56.965Z,20.20
2022-12-13T03:42:04.426Z,12.10
2022-12-13T03:46:12.385Z,12.90
2022-12-13T03:50:26.105Z,11.70
2022-12-13T03:54:35.396Z,13.50
2022-12-13T03:58:43.843Z,12.70
2022-12-13T04:02:51.432Z,10.80
2022-12-13T04:06:58.968Z,11.10
2022-12-13T04:11:22.620Z,14.40
2022-12-13T04:15:30.494Z,11.30
2022-12-13T04:19:38.418Z,25.70
2022-12-13T04:23:45.942Z,25.00
2022-12-13T04:27:53.343Z,24.90
2022-12-13T04:32:01.106Z,17.80
2022-12-13T04:36:10.550Z,16.10
2022-12-13T04:40:21.912Z,17.50
2022-12-13T04:44:33.753Z,17.50
2022-12-13T04:48:44.264Z,14.00
2022-12-13T04:52:52.050Z,14.60
2022-12-13T04:56:59.843Z,15.60
2022-12-13T05:01:14.031Z,15.60
2022-12-13T05:05:21.691Z,28.70
2022-12-13T05:09:29.230Z,26.70
2022-12-13T05:13:38.712Z,23.10
2022-12-13T05:17:46.791Z,16.50
2022-12-13T05:21:54.323Z,17.20
2022-12-13T05:26:11.011Z,17.40
2022-12-13T05:30:19.339Z,16.60
2022-12-13T05:34:26.894Z,13.60
2022-12-13T05:38:38.086Z,12.60
2022-12-13T05:42:45.782Z,13.90
2022-12-13T05:46:56.319Z,13.00
2022-12-13T05:51:09.693Z,12.00
2022-12-13T05:55:19.944Z,22.30
2022-12-13T05:59:27.466Z,17.90
2022-12-13T06:03:35.759Z,21.60
2022-12-13T06:07:43.593Z,15.60
2022-12-13T06:11:51.556Z,14.90
2022-12-13T06:16:05.563Z,14.00
2022-12-13T06:20:24.189Z,16.70
2022-12-13T06:24:33.686Z,17.60
2022-12-13T06:28:42.270Z,20.80
2022-12-13T06:32:53.844Z,24.40
2022-12-13T06:37:01.752Z,35.20
2022-12-13T06:41:14.421Z,33.80
2022-12-13T06:45:21.739Z,22.00
2022-12-13T06:49:32.396Z,19.50
2022-12-13T06:53:42.032Z,20.50
2022-12-13T06:57:51.613Z,21.80
2022-12-13T07:02:03.437Z,19.40
2022-12-13T07:06:15.595Z,19.10
2022-12-13T07:10:23.501Z,19.40
2022-12-13T07:14:31.429Z,28.30
2022-12-13T07:18:48.152Z,29.00
2022-12-13T07:22:58.839Z,24.80
2022-12-13T07:27:07.690Z,19.20
2022-12-13T07:31:16.734Z,21.80
2022-12-13T07:35:25.960Z,21.00
2022-12-13T07:39:33.761Z,14.90
2022-12-13T07:43:43.788Z,18.10
2022-12-13T07:47:51.812Z,17.10
2022-12-13T07:52:02.130Z,19.80
2022-12-13T07:56:12.422Z,18.50
2022-12-13T08:00:22.644Z,25.60
2022-12-13T08:04:37.908Z,22.60
2022-12-13T08:08:51.210Z,18.90
2022-12-13T08:12:59.548Z,18.30
2022-12-13T08:17:06.953Z,14.60
2022-12-13T08:21:51.797Z,14.80
2022-12-13T08:25:46.306Z,12.90
2022-12-13T08:29:55.294Z,15.60
2022-12-13T08:34:04.664Z,12.00
2022-12-13T08:38:14.295Z,13.00
2022-12-13T08:42:31.262Z,11.80
2022-12-13T08:46:40.118Z,9.70
2022-12-13T08:50:49.337Z,16.10
2022-12-13T08:54:57.872Z,21.30
2022-12-13T08:59:05.914Z,13.20
2022-12-13T09:03:14.271Z,11.60
2022-12-13T09:07:22.251Z,10.70
2022-12-13T09:11:34.803Z,9.80
2022-12-13T09:15:45.958Z,9.40
2022-12-13T09:19:58.384Z,11.50
2022-12-13T09:24:13.389Z,12.50
2022-12-13T09:28:33.328Z,11.80
2022-12-13T09:32:41.600Z,15.30
2022-12-13T09:36:50.100Z,17.20
2022-12-13T09:40:59.229Z,11.20
2022-12-13T09:45:22.338Z,12.00
2022-12-13T09:49:42.592Z,12.00
2022-12-13T09:53:53.859Z,9.40
2022-12-13T09:58:12.474Z,10.60
2022-12-13T10:02:25.102Z,11.60
2022-12-13T10:06:35.285Z,9.00
2022-12-13T10:10:45.642Z,11.30
2022-12-13T10:14:56.543Z,9.80
2022-12-13T10:19:09.965Z,14.40
2022-12-13T10:24:15.058Z,13.40
2022-12-13T10:28:09.599Z,13.80
2022-12-13T10:32:19.798Z,12.70
2022-12-13T10:36:41.582Z,9.20
2022-12-13T10:40:50.138Z,10.70
2022-12-13T10:45:23.044Z,10.60
2022-12-13T10:49:37.709Z,9.60
2022-12-13T10:53:49.713Z,7.50
2022-12-13T10:57:59.547Z,9.90
2022-12-13T11:02:37.354Z,8.40
2022-12-13T11:06:47.571Z,10.40
2022-12-13T11:11:01.821Z,9.70
2022-12-13T11:15:15.834Z,8.80
2022-12-13T11:19:28.983Z,17.10
2022-12-13T11:23:39.451Z,13.10
2022-12-13T11:28:02.788Z,12.50
2022-12-13T11:32:22.409Z,10.10
2022-12-13T11:36:42.170Z,10.30
2022-12-13T11:40:53.354Z,10.50
2022-12-13T11:45:08.514Z,10.70
2022-12-13T11:49:19.318Z,10.20
2022-12-13T11:53:35.642Z,11.30
2022-12-13T11:57:48.169Z,8.80
2022-12-13T12:02:05.251Z,9.40
2022-12-13T12:06:18.502Z,10.70
2022-12-13T12:10:31.566Z,9.60
2022-12-13T12:14:45.009Z,9.80
2022-12-13T12:18:55.288Z,8.00
2022-12-13T12:23:14.030Z,8.50
2022-12-13T12:27:30.694Z,13.90
2022-12-13T12:31:51.075Z,18.80
2022-12-13T12:36:13.392Z,11.00
2022-12-13T12:41:07.174Z,11.70
2022-12-13T12:45:54.572Z,12.80
2022-12-13T12:50:11.013Z,12.50
2022-12-13T12:54:38.546Z,7.30
2022-12-13T12:58:55.114Z,10.50
2022-12-13T13:03:18.836Z,11.70
2022-12-13T13:07:39.799Z,9.00
2022-12-13T13:11:49.908Z,10.40
2022-12-13T13:16:07.146Z,9.80
2022-12-13T13:20:30.865Z,10.50
2022-12-13T13:24:38.582Z,10.70
2022-12-13T13:28:48.898Z,10.50
2022-12-13T13:32:57.791Z,11.70
2022-12-13T13:37:22.274Z,15.80
2022-12-13T13:42:09.370Z,10.70
2022-12-13T13:46:17.137Z,14.50
2022-12-13T13:50:53.505Z,13.10
2022-12-13T13:55:28.615Z,13.50
2022-12-13T14:00:03.383Z,15.10
2022-12-13T14:04:38.239Z,12.20
2022-12-13T14:08:51.665Z,13.30
2022-12-13T14:13:45.093Z,16.90
2022-12-13T14:18:41.223Z,18.00
2022-12-13T14:22:52.226Z,22.50
2022-12-13T14:27:14.356Z,25.40
2022-12-13T14:31:26.445Z,31.00
2022-12-13T14:35:35.768Z,39.00
2022-12-13T14:39:47.441Z,33.60
2022-12-13T14:43:55.241Z,27.80
2022-12-13T14:48:05.145Z,23.60
2022-12-13T14:52:26.212Z,32.10
2022-12-13T14:56:36.172Z,35.80
2022-12-13T15:00:44.041Z,54.00
2022-12-13T15:04:53.918Z,76.20
2022-12-13T15:09:01.892Z,85.70
2022-12-13T15:13:09.999Z,75.90
2022-12-13T15:17:32.254Z,69.30
2022-12-13T15:21:40.331Z,55.10
2022-12-13T15:25:58.882Z,53.70
2022-12-13T15:30:09.295Z,45.70
2022-12-13T15:34:37.888Z,43.60
2022-12-13T15:38:51.218Z,36.80
2022-12-13T15:42:59.477Z,45.50
2022-12-13T15:47:10.006Z,47.10
2022-12-13T15:51:28.973Z,48.50
2022-12-13T15:55:40.767Z,45.50
2022-12-13T15:59:49.566Z,58.90
2022-12-13T16:03:57.557Z,51.10
2022-12-13T16:08:14.123Z,64.60
2022-12-13T16:12:27.194Z,76.90
2022-12-13T16:16:36.483Z,64.70
2022-12-13T16:20:46.870Z,61.60
2022-12-13T16:24:56.684Z,46.30
2022-12-13T16:29:07.241Z,41.80
2022-12-13T16:33:26.683Z,42.30
2022-12-13T16:37:35.759Z,49.00
2022-12-13T16:41:48.016Z,45.30
2022-12-13T16:45:56.771Z,45.70
2022-12-13T16:50:08.483Z,47.50
2022-12-13T16:54:17.317Z,48.90
2022-12-13T16:58:26.385Z,60.80
2022-12-13T17:02:35.498Z,64.50
2022-12-13T17:06:48.194Z,71.80
2022-12-13T17:10:58.002Z,73.90
2022-12-13T17:15:08.669Z,65.40
2022-12-13T17:19:17.851Z,55.30
2022-12-13T17:23:27.659Z,53.20
2022-12-13T17:27:37.848Z,42.80
2022-12-13T17:31:50.071Z,40.70
2022-12-13T17:35:58.510Z,47.00
2022-12-13T17:40:12.739Z,42.20
2022-12-13T17:44:22.566Z,48.60
2022-12-13T17:48:37.222Z,69.80
2022-12-13T17:52:49.336Z,78.70
2022-12-13T17:57:01.168Z,85.00
2022-12-13T18:01:19.420Z,63.70
2022-12-13T18:05:31.913Z,61.60
2022-12-13T18:09:40.465Z,57.30
2022-12-13T18:13:48.388Z,56.70
2022-12-13T18:18:12.304Z,64.20
2022-12-13T18:22:22.397Z,51.10
2022-12-13T18:26:33.324Z,48.00
2022-12-13T18:30:41.832Z,54.80
2022-12-13T18:34:49.673Z,68.40
2022-12-13T18:39:12.458Z,74.50
2022-12-13T18:43:21.801Z,62.90
2022-12-13T18:47:30.560Z,62.70
2022-12-13T18:51:38.266Z,58.60
2022-12-13T18:55:46.705Z,53.60
2022-12-13T18:59:54.945Z,52.30
2022-12-13T19:04:02.613Z,75.70
2022-12-13T19:08:12.625Z,75.50
2022-12-13T19:12:23.252Z,95.80
2022-12-13T19:16:32.014Z,106.70
2022-12-13T19:20:40.898Z,98.80
2022-12-13T19:24:48.631Z,84.30
2022-12-13T19:28:57.407Z,83.20
2022-12-13T19:33:05.562Z,94.30
2022-12-13T19:37:13.933Z,97.70
2022-12-13T19:41:22.730Z,99.30
2022-12-13T19:45:31.563Z,88.00
2022-12-13T19:49:39.892Z,78.90
2022-12-13T19:53:51.591Z,67.90
2022-12-13T19:58:00.438Z,65.70
2022-12-13T20:02:09.972Z,63.20
2022-12-13T20:06:20.030Z,55.40
2022-12-13T20:10:27.640Z,61.40
2022-12-13T20:14:35.980Z,64.70
2022-12-13T20:18:44.836Z,55.70
2022-12-13T20:22:55.189Z,55.40
2022-12-13T20:27:03.988Z,55.40
2022-12-13T20:31:14.512Z,60.90
2022-12-13T20:35:23.118Z,76.00
2022-12-13T20:39:31.473Z,92.30
2022-12-13T20:43:41.149Z,91.10
2022-12-13T20:47:49.938Z,86.00
2022-12-13T20:51:58.534Z,53.40
2022-12-13T20:56:11.131Z,70.20
2022-12-13T21:00:21.686Z,57.00
2022-12-13T21:04:31.233Z,53.00
2022-12-13T21:08:52.670Z,52.70
2022-12-13T21:13:01.210Z,50.60
2022-12-13T21:17:13.450Z,58.60
2022-12-13T21:21:21.529Z,64.30
2022-12-13T21:25:30.092Z,66.40
2022-12-13T21:29:38.027Z,59.40
2022-12-13T21:33:47.512Z,51.00
2022-12-13T21:37:55.363Z,58.60
2022-12-13T21:42:03.787Z,53.90
2022-12-13T21:46:13.329Z,61.60
2022-12-13T21:50:22.795Z,75.20
2022-12-13T21:54:31.052Z,69.30
2022-12-13T21:58:56.552Z,81.50
2022-12-13T22:03:04.777Z,81.90
2022-12-13T22:07:14.372Z,81.90
2022-12-13T22:11:22.221Z,79.60
2022-12-13T22:15:30.182Z,76.90
2022-12-13T22:19:38.279Z,79.20
2022-12-13T22:23:45.936Z,71.30
2022-12-13T22:27:57.544Z,77.60
2022-12-13T22:32:05.533Z,72.90
2022-12-13T22:36:15.232Z,76.80
2022-12-13T22:40:23.501Z,77.10
2022-12-13T22:44:31.347Z,76.40
2022-12-13T22:48:48.612Z,76.00
2022-12-13T22:52:57.054Z,75.60
2022-12-13T22:57:05.155Z,92.60
2022-12-13T23:01:14.210Z,81.40
2022-12-13T23:05:22.135Z,79.90
2022-12-13T23:09:29.917Z,81.20
2022-12-13T23:13:38.257Z,89.90
2022-12-13T23:17:46.657Z,80.20
2022-12-13T23:21:54.641Z,86.30
2022-12-13T23:26:10.923Z,87.20
2022-12-13T23:30:19.115Z,82.40
2022-12-13T23:34:27.067Z,75.70
2022-12-13T23:38:35.349Z,68.00
2022-12-13T23:42:42.992Z,76.80
2022-12-13T23:46:50.950Z,71.20
2022-12-13T23:51:00.777Z,79.50
2022-12-13T23:55:10.377Z,75.90
2022-12-13T23:59:19.432Z,70.70
